Time;durP1;ratioP1;P1;durP2;ratioP2;P2;SDS_P1;SDS_P2;PMS_P1;PMS_P2;Temp;Humidity;BMP_temperature;BMP_pressure;BME280_temperature;BME280_humidity;BME280_pressure;Samples;Min_cycle;Max_cycle;Signal;HPM_P1;HPM_P2
2022/05/24 00:04:34;;;;;;;5.78;3.97;;;;;;;16.98;100.00;99311.31;21158755;28;20100;-73
2022/05/24 00:25:01;;;;;;;6.97;4.63;;;;;;;16.85;100.00;99302.41;21158053;28;20048;-74
2022/05/24 00:35:02;;;;;;;7.65;5.32;;;;;;;16.82;100.00;99302.59;21157150;28;20557;-73
2022/05/24 00:45:11;;;;;;;10.82;6.57;;;;;;;16.77;100.00;99289.66;21157219;28;20118;-74
2022/05/24 00:55:16;;;;;;;10.68;6.40;;;;;;;16.65;100.00;99285.88;21155995;28;20047;-74
2022/05/24 01:05:24;;;;;;;8.45;5.68;;;;;;;16.44;100.00;99289.78;21155960;28;20054;-75
2022/05/24 01:15:26;;;;;;;8.65;5.63;;;;;;;16.44;100.00;99287.16;21155206;28;20051;-74
2022/05/24 01:25:58;;;;;;;9.40;5.97;;;;;;;16.25;100.00;99279.41;21153655;28;20054;-73
2022/05/24 01:36:09;;;;;;;9.70;6.55;;;;;;;16.07;100.00;99283.94;21152866;28;20517;-73
2022/05/24 01:46:13;;;;;;;8.73;6.68;;;;;;;15.96;100.00;99270.50;21152797;28;20047;-74
2022/05/24 01:56:19;;;;;;;10.30;7.05;;;;;;;15.85;100.00;99272.88;21152377;28;20054;-74
2022/05/24 02:06:26;;;;;;;11.15;7.40;;;;;;;15.70;100.00;99276.34;21151910;28;20058;-73
2022/05/24 02:16:32;;;;;;;9.55;7.65;;;;;;;15.56;100.00;99256.81;21152326;28;20444;-74
2022/05/24 02:26:34;;;;;;;9.13;6.72;;;;;;;15.54;100.00;99256.06;21153708;28;20462;-74
2022/05/24 02:36:36;;;;;;;11.18;6.90;;;;;;;15.40;100.00;99253.31;21167485;28;20104;-73
2022/05/24 02:46:40;;;;;;;9.95;6.38;;;;;;;15.42;100.00;99242.66;21166434;28;20071;-73
2022/05/24 02:56:44;;;;;;;;;;;;;;;15.24;100.00;99250.66;21166465;28;20048;-74
2022/05/24 03:17:07;;;;;;;7.72;5.20;;;;;;;15.25;100.00;99268.16;21164713;28;20048;-73
2022/05/24 03:27:11;;;;;;;6.78;4.97;;;;;;;15.17;100.00;99264.22;21168891;28;20056;-72
2022/05/24 03:37:13;;;;;;;7.17;4.50;;;;;;;15.03;100.00;99242.06;21162138;28;20047;-73
2022/05/24 03:47:15;;;;;;;6.15;3.60;;;;;;;14.99;100.00;99240.53;21160654;28;20568;-73
2022/05/24 04:07:37;;;;;;;6.07;3.90;;;;;;;14.97;100.00;99274.03;21137552;28;20100;-74
2022/05/24 04:17:39;;;;;;;5.90;2.70;;;;;;;14.91;100.00;99282.25;21075094;28;20039;-74
2022/05/24 04:27:41;;;;;;;6.45;2.30;;;;;;;15.01;100.00;99274.72;21073711;28;20926;-74
2022/05/24 04:37:42;;;;;;;3.45;2.13;;;;;;;15.07;100.00;99284.94;21072263;28;20048;-74
2022/05/24 04:47:44;;;;;;;6.63;2.75;;;;;;;15.14;100.00;99305.66;21072309;28;20104;-74
2022/05/24 04:57:45;;;;;;;5.20;2.65;;;;;;;15.64;100.00;99320.63;21070337;28;20066;-73
2022/05/24 05:07:47;;;;;;;8.55;2.85;;;;;;;15.97;100.00;99319.72;21070606;28;20043;-74
2022/05/24 05:17:48;;;;;;;5.15;2.63;;;;;;;15.74;100.00;99326.25;21069727;28;20047;-73
2022/05/24 05:27:50;;;;;;;8.48;3.97;;;;;;;15.96;100.00;99349.69;21070682;28;20055;-73
2022/05/24 05:37:51;;;;;;;7.20;3.40;;;;;;;15.43;100.00;99382.41;21065606;28;20044;-73
2022/05/24 05:47:54;;;;;;;7.55;3.38;;;;;;;15.33;100.00;99428.63;21103033;28;20051;-72
2022/05/24 05:57:56;;;;;;;3.47;2.08;;;;;;;15.00;100.00;99420.66;21107630;28;20050;-71
2022/05/24 06:07:58;;;;;;;1.45;0.70;;;;;;;15.16;100.00;99440.03;21115971;28;20044;-71
2022/05/24 06:18:01;;;;;;;3.28;0.63;;;;;;;15.11;100.00;99429.72;21083677;28;20048;-71
2022/05/24 06:28:02;;;;;;;1.08;0.50;;;;;;;15.36;100.00;99457.50;21082187;28;20046;-71
2022/05/24 06:38:07;;;;;;;2.35;0.90;;;;;;;15.83;100.00;99480.63;21081082;28;20109;-72
2022/05/24 06:48:10;;;;;;;2.63;0.85;;;;;;;15.40;100.00;99525.00;21111164;28;20048;-72
2022/05/24 06:58:12;;;;;;;2.45;0.90;;;;;;;15.68;100.00;99593.13;21121133;28;20473;-71
2022/05/24 07:08:19;;;;;;;6.38;1.17;;;;;;;15.38;100.00;99595.44;21118221;28;20357;-71
2022/05/24 07:18:20;;;;;;;2.42;0.88;;;;;;;15.68;100.00;99616.03;21083972;28;20051;-72
2022/05/24 07:28:23;;;;;;;2.70;0.80;;;;;;;15.92;100.00;99613.94;21154630;28;20109;-71
2022/05/24 07:38:24;;;;;;;3.20;1.10;;;;;;;16.62;100.00;99626.13;21147709;28;20048;-75
2022/05/24 07:48:26;;;;;;;1.95;0.90;;;;;;;16.54;100.00;99621.28;21153016;28;20051;-74
2022/05/24 07:58:28;;;;;;;3.25;0.90;;;;;;;17.24;100.00;99634.28;21152204;28;20615;-71
2022/05/24 08:08:30;;;;;;;8.55;1.13;;;;;;;16.91;100.00;99644.00;21150855;28;20044;-72
2022/05/24 08:18:32;;;;;;;2.92;0.80;;;;;;;16.66;99.27;99652.34;21150748;28;20058;-71
2022/05/24 08:28:34;;;;;;;4.90;0.75;;;;;;;16.64;97.46;99662.16;21150779;28;20058;-69
2022/05/24 08:38:42;;;;;;;3.08;0.90;;;;;;;16.74;92.21;99664.34;21149188;28;20055;-69
2022/05/24 08:49:00;;;;;;;3.95;0.90;;;;;;;17.72;88.73;99658.94;21149368;28;20043;-69
2022/05/24 08:59:11;;;;;;;3.83;0.70;;;;;;;17.73;86.63;99658.03;21147847;28;20104;-69
2022/05/24 09:09:35;;;;;;;2.95;0.90;;;;;;;18.08;86.32;99671.91;21146258;28;20492;-69
2022/05/24 09:19:40;;;;;;;2.85;0.82;;;;;;;17.56;88.66;99674.84;21063064;28;20044;-69
2022/05/24 09:30:05;;;;;;;3.72;0.90;;;;;;;17.34;87.57;99677.81;21053238;28;20533;-69
2022/05/24 09:40:18;;;;;;;;;;;;;;;17.27;86.55;99671.16;21061106;28;20284;-69
2022/05/24 09:50:39;;;;;;;2.30;0.70;;;;;;;17.16;88.31;99685.84;21060276;28;19928;-69
2022/05/24 10:00:52;;;;;;;2.92;0.60;;;;;;;16.93;84.46;99687.06;21059704;28;20101;-68
2022/05/24 10:10:57;;;;;;;0.95;0.55;;;;;;;17.03;79.81;99676.84;21069993;28;20040;-68
2022/05/24 10:21:43;;;;;;;1.58;0.60;;;;;;;17.04;77.47;99683.84;21059795;28;20044;-68
2022/05/24 10:42:56;;;;;;;2.03;0.80;;;;;;;18.08;67.53;99698.41;21019729;28;20051;-70
2022/05/24 10:53:15;;;;;;;1.88;0.40;;;;;;;17.83;57.93;99699.81;21090921;28;20048;-70
2022/05/24 11:03:30;;;;;;;2.63;0.57;;;;;;;18.06;59.27;99703.78;21156884;28;20054;-70
2022/05/24 11:13:37;;;;;;;0.68;0.38;;;;;;;18.60;54.08;99711.25;21125178;28;20052;-70
2022/05/24 11:23:58;;;;;;;1.83;0.38;;;;;;;18.57;51.87;99674.28;21072873;28;20048;-70
2022/05/24 11:34:01;;;;;;;1.88;0.35;;;;;;;19.13;53.51;99678.81;21072595;28;20117;-72
2022/05/24 11:44:07;;;;;;;2.53;0.40;;;;;;;19.00;52.83;99675.22;21068931;28;20048;-71
2022/05/24 11:54:12;;;;;;;5.57;0.50;;;;;;;19.45;54.49;99683.88;21068647;28;20505;-70
2022/05/24 12:15:05;;;;;;;2.30;0.50;;;;;;;19.38;55.72;99696.69;21064823;28;20044;-71
2022/05/24 12:25:07;;;;;;;1.20;0.40;;;;;;;19.18;51.37;99690.00;21150521;28;20051;-70
2022/05/24 12:35:12;;;;;;;0.93;0.30;;;;;;;19.07;50.72;99691.59;21149187;28;20518;-70
2022/05/24 12:45:33;;;;;;;2.45;0.47;;;;;;;19.89;48.42;99682.84;21149128;28;20072;-70
2022/05/24 13:05:56;;;;;;;2.45;0.40;;;;;;;20.42;44.77;99681.94;21127130;22;20048;-69
2022/05/24 13:16:00;;;;;;;3.08;0.45;;;;;;;20.12;46.04;99674.22;21057970;28;20489;-68
2022/05/24 13:26:01;;;;;;;2.17;0.37;;;;;;;20.09;45.14;99686.84;21058799;28;20051;-67
2022/05/24 13:36:18;;;;;;;0.70;0.20;;;;;;;20.48;45.72;99675.38;21057285;28;20056;-67
2022/05/24 13:46:21;;;;;;;1.08;0.30;;;;;;;21.11;45.99;99676.31;21057679;28;20080;-68
2022/05/24 13:56:31;;;;;;;1.55;0.35;;;;;;;20.54;47.43;99668.78;21057733;28;20059;-67
2022/05/24 14:06:39;;;;;;;1.30;0.30;;;;;;;21.25;42.68;99682.34;21056837;28;20048;-66
2022/05/24 14:16:41;;;;;;;1.60;0.52;;;;;;;21.06;42.44;99681.97;20998359;28;20049;-66
2022/05/24 14:26:46;;;;;;;2.08;0.30;;;;;;;21.16;42.92;99688.34;20981651;28;20058;-66
2022/05/24 14:36:50;;;;;;;0.98;0.20;;;;;;;21.48;41.35;99687.88;20987651;28;20052;-66
2022/05/24 14:46:52;;;;;;;2.50;0.30;;;;;;;21.31;44.45;99702.41;20989676;28;20413;-66
2022/05/24 14:56:54;;;;;;;1.10;0.22;;;;;;;20.84;44.76;99697.72;20986083;28;20048;-66
2022/05/24 15:15:20;;;;;;;1.88;0.40;;;;;;;20.57;43.94;99711.13;20984539;28;20053;-66
2022/05/24 15:17:33;;;;;;;3.15;0.43;;;;;;;20.32;45.54;99711.91;21047312;28;20089;-66
2022/05/24 15:27:35;;;;;;;1.33;0.30;;;;;;;20.99;40.83;99697.53;21067219;28;20044;-66
2022/05/24 15:37:37;;;;;;;1.48;0.30;;;;;;;20.69;41.40;99716.44;21065142;28;20101;-66
2022/05/24 15:47:38;;;;;;;1.25;0.40;;;;;;;21.09;42.21;99724.34;21067242;28;20485;-66
2022/05/24 15:57:42;;;;;;;;;;;;;;;20.81;43.87;99735.19;21066660;28;20046;-66
2022/05/24 16:18:08;;;;;;;1.83;0.38;;;;;;;20.12;45.71;99753.94;21050836;28;20048;-65
2022/05/24 16:28:11;;;;;;;3.15;0.60;;;;;;;20.47;46.01;99758.75;21065758;28;20044;-66
2022/05/24 16:38:12;;;;;;;2.10;0.43;;;;;;;20.39;46.17;99758.38;21063959;28;20051;-66
2022/05/24 16:48:14;;;;;;;1.50;0.40;;;;;;;20.21;46.36;99774.59;21064689;28;20109;-66
2022/05/24 17:08:49;;;;;;;2.25;0.30;;;;;;;20.31;44.24;99774.84;21022140;28;20039;-66
2022/05/24 17:18:51;;;;;;;0.90;0.40;;;;;;;20.05;44.97;99784.53;20985128;28;20048;-67
2022/05/24 17:28:52;;;;;;;2.15;0.40;;;;;;;19.69;46.65;99793.91;20976875;28;20047;-66
2022/05/24 17:38:54;;;;;;;1.13;0.30;;;;;;;19.58;46.24;99814.91;20975593;28;20139;-66
2022/05/24 17:48:56;;;;;;;0.73;0.32;;;;;;;19.52;48.01;99817.13;20975848;28;20052;-66
2022/05/24 17:58:58;;;;;;;3.30;0.52;;;;;;;19.04;50.14;99825.31;20974728;28;20040;-66
2022/05/24 18:09:00;;;;;;;1.48;0.43;;;;;;;18.91;52.29;99867.63;20972693;28;20044;-66
2022/05/24 18:19:02;;;;;;;1.10;0.50;;;;;;;18.91;53.38;99870.28;21039983;28;20055;-66
2022/05/24 18:39:25;;;;;;;2.80;0.43;;;;;;;18.05;56.81;99879.56;21032222;28;20053;-66
2022/05/24 18:49:26;;;;;;;1.58;0.40;;;;;;;17.74;57.70;99892.78;20971384;28;20292;-66
2022/05/24 18:59:28;;;;;;;3.53;0.30;;;;;;;17.41;59.96;99901.50;20970851;28;20045;-66
2022/05/24 19:09:29;;;;;;;1.85;0.40;;;;;;;17.13;58.46;99910.84;21099280;22;20104;-69
2022/05/24 19:19:31;;;;;;;1.77;0.47;;;;;;;16.86;62.44;99923.69;21154702;28;20048;-67
2022/05/24 19:29:37;;;;;;;0.85;0.30;;;;;;;16.58;63.66;99931.22;21154949;28;20051;-67
2022/05/24 19:49:59;;;;;;;3.17;0.47;;;;;;;16.12;64.92;99963.25;21152878;28;20052;-69
2022/05/24 20:00:01;;;;;;;0.77;0.40;;;;;;;15.93;65.15;99980.84;21152564;28;20052;-70
2022/05/24 20:10:04;;;;;;;2.05;1.15;;;;;;;15.54;69.63;99999.25;21078535;28;20044;-70
2022/05/24 20:20:06;;;;;;;5.53;0.70;;;;;;;15.35;76.20;100028.19;21151132;28;20051;-69
2022/05/24 20:30:08;;;;;;;4.57;1.10;;;;;;;15.09;79.26;100045.06;21149695;28;20048;-70
2022/05/24 20:40:11;;;;;;;2.05;1.08;;;;;;;14.86;79.85;100051.25;21143334;28;20052;-69
2022/05/24 20:50:12;;;;;;;2.88;0.65;;;;;;;14.71;80.56;100051.81;21149211;28;20381;-70
2022/05/24 21:00:17;;;;;;;1.45;0.60;;;;;;;14.44;81.38;100059.84;21146549;28;20569;-70
2022/05/24 21:10:20;;;;;;;2.60;0.73;;;;;;;14.24;81.49;100059.72;21142961;28;20042;-70
2022/05/24 21:20:21;;;;;;;2.75;0.80;;;;;;;14.24;83.57;100062.34;21062487;28;20073;-70
2022/05/24 21:30:22;;;;;;;3.95;1.10;;;;;;;14.08;83.29;100052.38;21061020;28;20051;-70
2022/05/24 21:40:24;;;;;;;2.33;0.90;;;;;;;13.99;86.25;100055.31;21060010;28;20133;-70
2022/05/24 21:50:26;;;;;;;1.77;0.98;;;;;;;13.97;86.65;100062.41;21059477;28;20040;-70
2022/05/24 22:00:58;;;;;;;7.13;2.58;;;;;;;14.00;86.84;100070.19;21059534;28;20051;-70
2022/05/24 22:11:10;;;;;;;3.00;0.90;;;;;;;13.79;87.72;100082.31;21109526;28;20055;-70
2022/05/24 22:21:12;;;;;;;1.23;0.73;;;;;;;13.62;87.86;100102.22;21065890;28;20489;-70
2022/05/24 22:31:14;;;;;;;2.58;0.63;;;;;;;13.25;90.12;100121.78;21066200;28;20044;-70
2022/05/24 22:41:18;;;;;;;1.58;0.80;;;;;;;13.08;93.27;100131.03;21066410;28;20056;-70
2022/05/24 22:51:23;;;;;;;1.58;0.80;;;;;;;13.07;94.28;100133.69;21079616;28;20076;-70
2022/05/24 23:01:24;;;;;;;;;;;;;;;13.10;93.47;100144.13;21080846;28;20048;-71
2022/05/24 23:11:26;;;;;;;3.58;0.75;;;;;;;13.06;93.71;100131.97;21081628;28;20015;-71
2022/05/24 23:21:31;;;;;;;3.45;0.77;;;;;;;13.10;93.50;100137.09;21079981;28;20052;-71
2022/05/24 23:31:33;;;;;;;2.03;0.70;;;;;;;13.12;94.18;100136.19;21078632;28;20052;-70
2022/05/24 23:41:35;;;;;;;1.90;0.80;;;;;;;13.11;94.72;100140.59;21077732;28;20314;-70
2022/05/24 23:51:36;;;;;;;5.07;0.80;;;;;;;12.96;95.89;100141.06;21077478;28;20059;-70
